createdAt,value
2022-12-14T00:01:28.115Z,-4.80
2022-12-14T00:03:56.432Z,-4.80
2022-12-14T00:06:30.312Z,-4.80
2022-12-14T00:08:59.494Z,-4.80
2022-12-14T00:11:26.723Z,-4.80
2022-12-14T00:13:58.266Z,-4.80
2022-12-14T00:16:27.187Z,-4.90
2022-12-14T00:18:55.800Z,-4.90
2022-12-14T00:21:23.153Z,-4.90
2022-12-14T00:23:51.483Z,-4.90
2022-12-14T00:26:24.150Z,-4.90
2022-12-14T00:28:52.392Z,-4.90
2022-12-14T00:31:19.992Z,-4.90
2022-12-14T00:33:46.926Z,-4.90
2022-12-14T00:36:13.975Z,-4.90
2022-12-14T00:38:41.290Z,-5.00
2022-12-14T00:41:09.206Z,-5.00
2022-12-14T00:43:36.416Z,-5.00
2022-12-14T00:46:04.946Z,-4.90
2022-12-14T00:48:32.296Z,-5.00
2022-12-14T00:50:59.736Z,-5.00
2022-12-14T00:53:26.652Z,-5.00
2022-12-14T00:55:53.366Z,-5.00
2022-12-14T00:58:21.979Z,-5.00
2022-12-14T01:00:58.048Z,-5.00
2022-12-14T01:03:25.166Z,-5.00
2022-12-14T01:05:52.183Z,-5.00
2022-12-14T01:08:20.573Z,-5.00
2022-12-14T01:10:47.436Z,-5.00
2022-12-14T01:13:14.186Z,-5.00
2022-12-14T01:15:40.967Z,-5.00
2022-12-14T01:18:07.815Z,-5.00
2022-12-14T01:20:34.563Z,-5.00
2022-12-14T01:23:01.258Z,-5.10
2022-12-14T01:25:28.151Z,-5.10
2022-12-14T01:27:54.848Z,-5.10
2022-12-14T01:30:21.704Z,-5.10
2022-12-14T01:32:48.471Z,-5.10
2022-12-14T01:35:15.338Z,-5.10
2022-12-14T01:37:42.006Z,-5.20
2022-12-14T01:40:09.349Z,-5.20
2022-12-14T01:42:36.843Z,-5.20
2022-12-14T01:45:05.556Z,-5.20
2022-12-14T01:47:47.026Z,-5.20
2022-12-14T01:50:34.094Z,-5.20
2022-12-14T01:53:05.295Z,-5.20
2022-12-14T01:55:33.462Z,-5.20
2022-12-14T01:58:03.195Z,-5.20
2022-12-14T02:00:30.387Z,-5.30
2022-12-14T02:02:57.108Z,-5.30
2022-12-14T02:05:25.370Z,-5.30
2022-12-14T02:07:54.245Z,-5.30
2022-12-14T02:10:23.575Z,-5.30
2022-12-14T02:12:58.206Z,-5.30
2022-12-14T02:15:25.216Z,-5.30
2022-12-14T02:17:52.227Z,-5.30
2022-12-14T02:20:21.589Z,-5.30
2022-12-14T02:23:03.285Z,-5.30
2022-12-14T02:25:45.202Z,-5.30
2022-12-14T02:28:22.173Z,-5.30
2022-12-14T02:31:04.788Z,-5.30
2022-12-14T02:33:55.785Z,-5.30
2022-12-14T02:36:42.987Z,-5.30
2022-12-14T02:39:32.348Z,-5.30
2022-12-14T02:42:10.110Z,-5.30
2022-12-14T02:44:49.780Z,-5.30
2022-12-14T02:47:23.837Z,-5.40
2022-12-14T02:50:11.952Z,-5.40
2022-12-14T02:53:14.971Z,-5.40
2022-12-14T02:55:51.923Z,-5.40
2022-12-14T02:58:27.161Z,-5.40
2022-12-14T03:00:56.050Z,-5.40
2022-12-14T03:03:23.667Z,-5.40
2022-12-14T03:06:02.198Z,-5.40
2022-12-14T03:08:34.135Z,-5.40
2022-12-14T03:11:05.150Z,-5.40
2022-12-14T03:13:56.779Z,-5.50
2022-12-14T03:16:30.244Z,-5.40
2022-12-14T03:19:23.179Z,-5.40
2022-12-14T03:21:57.584Z,-5.30
2022-12-14T03:24:30.827Z,-5.40
2022-12-14T03:27:14.157Z,-5.40
2022-12-14T03:29:47.962Z,-5.50
2022-12-14T03:32:19.212Z,-5.50
2022-12-14T03:34:54.043Z,-5.50
2022-12-14T03:37:32.574Z,-5.50
2022-12-14T03:39:59.359Z,-5.60
2022-12-14T03:42:37.703Z,-5.60
2022-12-14T03:45:26.591Z,-5.60
2022-12-14T03:47:59.035Z,-5.60
2022-12-14T03:50:38.802Z,-5.60
2022-12-14T03:53:17.557Z,-5.50
2022-12-14T03:56:02.680Z,-5.60
2022-12-14T03:59:06.824Z,-5.60
2022-12-14T04:01:41.064Z,-5.60
2022-12-14T04:04:15.602Z,-5.60
2022-12-14T04:07:09.059Z,-5.60
2022-12-14T04:09:49.921Z,-5.60
2022-12-14T04:12:46.530Z,-5.50
2022-12-14T04:15:43.431Z,-5.60
2022-12-14T04:18:36.031Z,-5.60
2022-12-14T04:21:13.446Z,-5.60
2022-12-14T04:24:04.653Z,-5.60
2022-12-14T04:26:38.199Z,-5.70
2022-12-14T04:29:29.619Z,-5.70
2022-12-14T04:32:07.087Z,-5.70
2022-12-14T04:34:37.442Z,-5.70
2022-12-14T04:37:09.474Z,-5.80
2022-12-14T04:39:43.343Z,-5.80
2022-12-14T04:42:13.376Z,-5.80
2022-12-14T04:44:49.068Z,-5.80
2022-12-14T04:47:17.672Z,-5.80
2022-12-14T04:49:57.669Z,-5.80
2022-12-14T04:52:35.973Z,-5.80
2022-12-14T04:55:18.566Z,-5.70
2022-12-14T04:58:04.856Z,-5.70
2022-12-14T05:00:34.937Z,-5.80
2022-12-14T05:03:16.770Z,-5.70
2022-12-14T05:06:16.144Z,-5.60
2022-12-14T05:08:55.451Z,-5.60
2022-12-14T05:11:53.653Z,-5.60
2022-12-14T05:14:47.993Z,-5.60
2022-12-14T05:17:15.870Z,-5.60
2022-12-14T05:19:50.131Z,-5.60
2022-12-14T05:22:18.175Z,-5.60
2022-12-14T05:24:44.996Z,-5.60
2022-12-14T05:27:11.865Z,-5.60
2022-12-14T05:29:38.591Z,-5.60
2022-12-14T05:32:05.365Z,-5.60
2022-12-14T05:34:32.303Z,-5.60
2022-12-14T05:36:58.988Z,-5.50
2022-12-14T05:39:25.695Z,-5.50
2022-12-14T05:41:53.351Z,-5.50
2022-12-14T05:44:20.521Z,-5.60
2022-12-14T05:46:47.272Z,-5.60
2022-12-14T05:49:14.035Z,-5.40
2022-12-14T05:51:40.842Z,-5.50
2022-12-14T05:54:07.556Z,-5.50
2022-12-14T05:56:34.290Z,-5.50
2022-12-14T05:59:02.419Z,-5.50
2022-12-14T06:01:29.180Z,-5.50
2022-12-14T06:03:56.003Z,-5.60
2022-12-14T06:06:22.803Z,-5.60
2022-12-14T06:08:50.375Z,-5.60
2022-12-14T06:11:24.145Z,-5.60
2022-12-14T06:13:51.524Z,-5.60
2022-12-14T06:16:24.354Z,-5.60
2022-12-14T06:18:55.140Z,-5.60
2022-12-14T06:21:29.976Z,-5.60
2022-12-14T06:23:58.216Z,-5.70
2022-12-14T06:26:26.329Z,-5.70
2022-12-14T06:28:53.463Z,-5.70
2022-12-14T06:31:22.776Z,-5.70
2022-12-14T06:33:50.223Z,-5.70
2022-12-14T06:36:18.823Z,-5.70
2022-12-14T06:38:46.113Z,-5.80
2022-12-14T06:41:12.862Z,-5.80
2022-12-14T06:43:39.577Z,-5.80
2022-12-14T06:46:15.153Z,-5.90
2022-12-14T06:48:42.961Z,-5.80
2022-12-14T06:51:09.828Z,-5.90
2022-12-14T06:53:36.637Z,-5.90
2022-12-14T06:56:14.677Z,-5.90
2022-12-14T06:58:42.486Z,-5.90
2022-12-14T07:01:20.994Z,-5.80
2022-12-14T07:03:49.578Z,-5.90
2022-12-14T07:06:16.939Z,-5.90
2022-12-14T07:08:43.951Z,-5.90
2022-12-14T07:11:12.924Z,-5.90
2022-12-14T07:13:39.797Z,-5.90
2022-12-14T07:16:08.029Z,-5.90
2022-12-14T07:18:34.894Z,-6.00
2022-12-14T07:21:09.995Z,-5.90
2022-12-14T07:23:38.352Z,-5.90
2022-12-14T07:26:08.100Z,-5.90
2022-12-14T07:28:37.056Z,-5.80
2022-12-14T07:31:05.039Z,-5.80
2022-12-14T07:33:32.239Z,-5.80
2022-12-14T07:36:04.114Z,-5.80
2022-12-14T07:38:30.917Z,-5.80
2022-12-14T07:41:06.079Z,-5.80
2022-12-14T07:43:33.331Z,-5.80
2022-12-14T07:46:01.946Z,-5.80
2022-12-14T07:48:28.927Z,-5.80
2022-12-14T07:51:00.862Z,-5.70
2022-12-14T07:53:27.964Z,-5.70
2022-12-14T07:55:54.895Z,-5.60
2022-12-14T07:58:21.577Z,-5.60
2022-12-14T08:00:48.316Z,-5.50
2022-12-14T08:03:15.033Z,-5.50
2022-12-14T08:05:41.730Z,-5.40
2022-12-14T08:08:08.420Z,-5.50
2022-12-14T08:10:40.122Z,-5.50
2022-12-14T08:13:07.185Z,-5.40
2022-12-14T08:15:37.500Z,-5.50
2022-12-14T08:18:04.269Z,-5.50
2022-12-14T08:20:30.957Z,-5.40
2022-12-14T08:22:57.641Z,-5.40
2022-12-14T08:25:24.503Z,-5.30
2022-12-14T08:27:51.241Z,-5.30
2022-12-14T08:30:17.949Z,-5.30
2022-12-14T08:32:44.652Z,-5.30
2022-12-14T08:35:11.336Z,-5.30
2022-12-14T08:37:41.655Z,-5.30
2022-12-14T08:40:11.383Z,-5.30
2022-12-14T08:42:38.094Z,-5.20
2022-12-14T08:45:05.277Z,-5.20
2022-12-14T08:47:32.025Z,-5.10
2022-12-14T08:49:59.492Z,-5.00
2022-12-14T08:52:26.227Z,-5.10
2022-12-14T08:54:53.048Z,-5.00
2022-12-14T08:57:19.853Z,-5.00
2022-12-14T09:00:02.668Z,-5.00
2022-12-14T09:02:30.028Z,-5.00
2022-12-14T09:04:56.833Z,-4.90
2022-12-14T09:07:23.543Z,-4.90
2022-12-14T09:09:50.235Z,-5.00
2022-12-14T09:12:16.937Z,-5.00
2022-12-14T09:14:46.548Z,-4.90
2022-12-14T09:17:19.612Z,-5.00
2022-12-14T09:19:46.513Z,-4.90
2022-12-14T09:22:14.061Z,-4.80
2022-12-14T09:24:40.836Z,-4.90
2022-12-14T09:27:08.808Z,-4.90
2022-12-14T09:29:35.651Z,-5.00
2022-12-14T09:32:02.470Z,-5.00
2022-12-14T09:34:29.445Z,-5.00
2022-12-14T09:36:56.120Z,-5.00
2022-12-14T09:39:22.870Z,-5.00
2022-12-14T09:42:17.283Z,-5.00
2022-12-14T09:45:19.191Z,-4.90
2022-12-14T09:48:02.206Z,-5.00
2022-12-14T09:50:29.213Z,-5.00
2022-12-14T09:53:01.636Z,-4.90
2022-12-14T09:55:42.897Z,-4.90
2022-12-14T09:58:14.935Z,-4.90
2022-12-14T10:00:51.451Z,-4.80
2022-12-14T10:03:41.364Z,-4.60
2022-12-14T10:06:37.595Z,-4.30
2022-12-14T10:09:31.805Z,-3.80
2022-12-14T10:12:14.607Z,-3.30
2022-12-14T10:15:10.677Z,-3.20
2022-12-14T10:18:01.377Z,-3.00
2022-12-14T10:20:42.175Z,-3.00
2022-12-14T10:23:21.106Z,-2.70
2022-12-14T10:25:52.748Z,-2.60
2022-12-14T10:28:36.139Z,-2.70
2022-12-14T10:31:07.443Z,-2.90
2022-12-14T10:33:34.134Z,-3.10
2022-12-14T10:36:12.821Z,-2.90
2022-12-14T10:38:49.297Z,-2.80
2022-12-14T10:41:36.882Z,-2.80
2022-12-14T10:44:12.776Z,-2.60
2022-12-14T10:47:04.955Z,-2.60
2022-12-14T10:49:55.311Z,-2.40
2022-12-14T10:52:26.123Z,-2.40
2022-12-14T10:54:55.680Z,-2.30
2022-12-14T10:57:26.478Z,-2.20
2022-12-14T11:00:07.848Z,-2.10
2022-12-14T11:02:38.460Z,-1.80
2022-12-14T11:05:34.168Z,-1.80
2022-12-14T11:08:04.497Z,-1.80
2022-12-14T11:10:36.111Z,-1.70
2022-12-14T11:13:18.776Z,-1.40
2022-12-14T11:15:48.233Z,-1.70
2022-12-14T11:18:15.533Z,-1.60
2022-12-14T11:20:57.452Z,-1.70
2022-12-14T11:23:27.024Z,-1.80
2022-12-14T11:26:02.662Z,-1.60
2022-12-14T11:28:49.889Z,-1.40
2022-12-14T11:31:32.105Z,-1.40
2022-12-14T11:34:00.096Z,-1.40
2022-12-14T11:36:41.273Z,-1.50
2022-12-14T11:39:14.111Z,-1.50
2022-12-14T11:41:46.534Z,-1.50
2022-12-14T11:44:16.384Z,-1.40
2022-12-14T11:46:54.530Z,-1.50
2022-12-14T11:49:36.228Z,-1.50
2022-12-14T11:52:06.131Z,-1.50
2022-12-14T11:54:34.649Z,-1.30
2022-12-14T11:57:17.647Z,-1.20
2022-12-14T11:59:52.348Z,-1.00
2022-12-14T12:02:35.289Z,-0.80
2022-12-14T12:05:12.215Z,-0.50
2022-12-14T12:07:45.899Z,-0.50
2022-12-14T12:10:12.627Z,-0.40
2022-12-14T12:12:54.220Z,-0.50
2022-12-14T12:15:29.201Z,-0.40
2022-12-14T12:18:01.653Z,-0.20
2022-12-14T12:20:39.190Z,0.00
2022-12-14T12:23:13.047Z,0.10
2022-12-14T12:25:41.699Z,0.20
2022-12-14T12:28:20.567Z,0.30
2022-12-14T12:30:51.774Z,0.50
2022-12-14T12:33:31.300Z,0.60
2022-12-14T12:36:02.793Z,0.50
2022-12-14T12:38:54.779Z,0.70
2022-12-14T12:41:33.412Z,1.20
2022-12-14T12:44:15.141Z,1.50
2022-12-14T12:47:15.256Z,1.70
2022-12-14T12:49:40.004Z,2.20
2022-12-14T12:52:20.557Z,1.80
2022-12-14T12:55:01.221Z,2.00
2022-12-14T12:57:33.589Z,1.70
2022-12-14T13:00:01.183Z,1.80
2022-12-14T13:02:33.843Z,2.20
2022-12-14T13:05:45.832Z,2.30
2022-12-14T13:08:14.233Z,2.00
2022-12-14T13:11:02.443Z,2.60
2022-12-14T13:13:34.222Z,2.90
2022-12-14T13:16:27.764Z,2.40
2022-12-14T13:19:32.451Z,3.00
2022-12-14T13:21:51.697Z,1.90
2022-12-14T13:24:21.089Z,2.40
2022-12-14T13:26:58.589Z,2.90
2022-12-14T13:29:42.816Z,3.60
2022-12-14T13:32:37.398Z,3.20
2022-12-14T13:35:18.626Z,2.10
2022-12-14T13:37:52.943Z,1.80
2022-12-14T13:40:22.738Z,1.60
2022-12-14T13:43:16.146Z,1.80
2022-12-14T13:45:46.326Z,1.50
2022-12-14T13:48:16.526Z,1.80
2022-12-14T13:50:52.863Z,1.90
2022-12-14T13:53:50.289Z,2.00
2022-12-14T13:56:30.847Z,1.90
2022-12-14T13:59:00.377Z,1.90
2022-12-14T14:01:46.062Z,1.80
2022-12-14T14:04:16.035Z,1.80
2022-12-14T14:06:44.542Z,1.60
2022-12-14T14:09:26.766Z,1.30
2022-12-14T14:12:25.429Z,1.20
2022-12-14T14:15:02.155Z,1.20
2022-12-14T14:17:37.362Z,1.10
2022-12-14T14:20:36.262Z,1.00
2022-12-14T14:23:18.030Z,1.00
2022-12-14T14:26:10.155Z,1.00
2022-12-14T14:28:38.081Z,1.00
2022-12-14T14:31:05.350Z,1.60
2022-12-14T14:33:49.191Z,2.00
2022-12-14T14:36:33.488Z,2.60
2022-12-14T14:39:02.264Z,2.90
2022-12-14T14:41:36.092Z,2.00
2022-12-14T14:44:18.415Z,1.70
2022-12-14T14:46:47.548Z,1.60
2022-12-14T14:49:37.250Z,1.00
2022-12-14T14:52:44.313Z,0.60
2022-12-14T14:58:37.649Z,-0.10
2022-12-14T15:01:25.190Z,-0.50
2022-12-14T15:04:04.179Z,-0.50
2022-12-14T15:06:37.898Z,-0.60
2022-12-14T15:09:41.602Z,-0.70
2022-12-14T15:12:28.874Z,-0.80
2022-12-14T15:15:02.141Z,-1.10
2022-12-14T15:17:29.255Z,-1.20
2022-12-14T15:20:01.200Z,-1.40
2022-12-14T15:22:40.001Z,-1.50
2022-12-14T15:25:13.702Z,-1.60
2022-12-14T15:27:41.623Z,-1.70
2022-12-14T15:30:11.587Z,-1.80
2022-12-14T15:32:48.036Z,-1.80
2022-12-14T15:35:20.810Z,-2.00
2022-12-14T15:37:58.001Z,-2.00
2022-12-14T15:40:27.990Z,-2.10
2022-12-14T15:42:57.218Z,-2.20
2022-12-14T15:45:34.315Z,-2.20
2022-12-14T15:48:20.191Z,-2.30
2022-12-14T15:50:52.008Z,-2.40
2022-12-14T15:53:29.086Z,-2.40
2022-12-14T15:56:01.943Z,-2.40
2022-12-14T15:58:39.042Z,-2.50
2022-12-14T16:01:16.766Z,-2.40
2022-12-14T16:03:50.277Z,-2.30
2022-12-14T16:06:17.595Z,-2.30
2022-12-14T16:09:05.173Z,-2.30
2022-12-14T16:11:40.414Z,-2.30
2022-12-14T16:14:24.869Z,-2.30
2022-12-14T16:16:52.344Z,-2.40
2022-12-14T16:19:27.722Z,-2.60
2022-12-14T16:22:20.994Z,-2.70
2022-12-14T16:24:58.614Z,-2.90
2022-12-14T16:27:27.746Z,-2.90
2022-12-14T16:30:16.382Z,-3.10
2022-12-14T16:32:44.862Z,-3.20
2022-12-14T16:35:19.893Z,-3.20
2022-12-14T16:37:58.286Z,-3.20
2022-12-14T16:40:33.744Z,-3.20
2022-12-14T16:43:01.223Z,-3.30
2022-12-14T16:45:33.914Z,-3.30
2022-12-14T16:48:14.251Z,-3.50
2022-12-14T16:50:56.352Z,-3.50
2022-12-14T16:53:27.538Z,-3.50
2022-12-14T16:56:03.778Z,-3.60
2022-12-14T16:58:30.908Z,-3.60
2022-12-14T17:01:06.025Z,-3.60
2022-12-14T17:03:33.900Z,-3.60
2022-12-14T17:06:06.305Z,-3.70
2022-12-14T17:08:36.137Z,-3.70
2022-12-14T17:11:03.233Z,-3.80
2022-12-14T17:13:33.205Z,-3.80
2022-12-14T17:16:06.970Z,-3.80
2022-12-14T17:18:38.009Z,-3.90
2022-12-14T17:21:06.822Z,-4.00
2022-12-14T17:23:36.736Z,-4.10
2022-12-14T17:26:03.849Z,-4.10
2022-12-14T17:28:34.569Z,-4.20
2022-12-14T17:31:02.288Z,-4.30
2022-12-14T17:33:31.257Z,-4.30
2022-12-14T17:35:58.187Z,-4.40
2022-12-14T17:38:24.910Z,-4.40
2022-12-14T17:40:53.679Z,-4.50
2022-12-14T17:43:25.496Z,-4.50
2022-12-14T17:45:52.861Z,-4.50
2022-12-14T17:48:20.188Z,-4.50
2022-12-14T17:50:49.799Z,-4.50
2022-12-14T17:53:22.132Z,-4.50
2022-12-14T17:55:48.862Z,-4.60
2022-12-14T17:58:16.703Z,-4.70
2022-12-14T18:01:03.351Z,-4.70
2022-12-14T18:03:33.141Z,-4.70
2022-12-14T18:06:00.471Z,-4.80
2022-12-14T18:08:27.381Z,-4.80
2022-12-14T18:10:57.482Z,-4.80
2022-12-14T18:13:24.243Z,-4.90
2022-12-14T18:15:53.003Z,-4.90
2022-12-14T18:18:23.975Z,-4.90
2022-12-14T18:21:00.347Z,-4.90
2022-12-14T18:23:28.928Z,-4.90
2022-12-14T18:25:58.428Z,-5.00
2022-12-14T18:28:25.549Z,-5.10
2022-12-14T18:30:59.093Z,-5.10
2022-12-14T18:33:27.822Z,-5.10
2022-12-14T18:35:56.455Z,-5.20
2022-12-14T18:38:24.203Z,-5.30
2022-12-14T18:40:53.229Z,-5.30
2022-12-14T18:43:28.291Z,-5.40
2022-12-14T18:45:56.044Z,-5.40
2022-12-14T18:48:23.991Z,-5.40
2022-12-14T18:50:51.674Z,-5.30
2022-12-14T18:53:20.520Z,-5.30
2022-12-14T18:55:48.272Z,-5.40
2022-12-14T18:58:28.127Z,-5.40
2022-12-14T19:00:58.291Z,-5.30
2022-12-14T19:03:25.980Z,-5.40
2022-12-14T19:06:26.733Z,-5.50
2022-12-14T19:08:49.851Z,-5.50
2022-12-14T19:11:37.620Z,-5.60
2022-12-14T19:14:04.503Z,-5.60
2022-12-14T19:16:31.576Z,-5.60
2022-12-14T19:18:59.558Z,-5.60
2022-12-14T19:21:26.626Z,-5.80
2022-12-14T19:23:53.380Z,-5.70
2022-12-14T19:26:21.063Z,-5.70
2022-12-14T19:28:47.837Z,-5.70
2022-12-14T19:31:14.598Z,-5.80
2022-12-14T19:33:41.448Z,-5.80
2022-12-14T19:36:09.227Z,-5.90
2022-12-14T19:38:37.504Z,-5.90
2022-12-14T19:41:07.679Z,-6.00
2022-12-14T19:43:35.444Z,-6.00
2022-12-14T19:46:07.483Z,-6.10
2022-12-14T19:48:34.583Z,-6.10
2022-12-14T19:51:10.421Z,-6.20
2022-12-14T19:53:37.945Z,-6.20
2022-12-14T19:56:05.186Z,-6.20
2022-12-14T19:58:32.039Z,-6.40
2022-12-14T20:00:59.012Z,-6.40
2022-12-14T20:03:26.030Z,-6.40
2022-12-14T20:05:58.713Z,-6.50
2022-12-14T20:08:27.783Z,-6.60
2022-12-14T20:10:55.303Z,-6.60
2022-12-14T20:13:24.186Z,-6.60
2022-12-14T20:15:53.488Z,-6.60
2022-12-14T20:18:21.296Z,-6.50
2022-12-14T20:20:49.744Z,-6.50
2022-12-14T20:23:21.459Z,-6.50
2022-12-14T20:25:48.998Z,-6.50
2022-12-14T20:28:15.761Z,-6.50
2022-12-14T20:30:47.751Z,-6.50
2022-12-14T20:33:14.588Z,-6.60
2022-12-14T20:35:41.393Z,-6.60
2022-12-14T20:38:08.455Z,-6.60
2022-12-14T20:40:39.114Z,-6.60
2022-12-14T20:43:07.024Z,-6.70
2022-12-14T20:45:42.334Z,-6.70
2022-12-14T20:48:09.212Z,-6.70
2022-12-14T20:50:40.600Z,-6.80
2022-12-14T20:53:07.902Z,-6.80
2022-12-14T20:55:35.778Z,-6.80
2022-12-14T20:58:02.671Z,-6.90
2022-12-14T21:00:29.572Z,-7.00
2022-12-14T21:02:56.547Z,-6.90
2022-12-14T21:05:23.464Z,-6.90
2022-12-14T21:07:50.298Z,-6.90
2022-12-14T21:10:17.076Z,-7.00
2022-12-14T21:12:45.824Z,-7.00
2022-12-14T21:15:12.556Z,-7.10
2022-12-14T21:17:39.442Z,-7.10
2022-12-14T21:20:06.512Z,-7.20
2022-12-14T21:22:35.237Z,-7.30
2022-12-14T21:25:04.246Z,-7.40
2022-12-14T21:27:33.056Z,-7.40
2022-12-14T21:30:00.402Z,-7.40
2022-12-14T21:32:27.794Z,-7.40
2022-12-14T21:34:54.596Z,-7.40
2022-12-14T21:37:21.946Z,-7.50
2022-12-14T21:39:54.090Z,-7.50
2022-12-14T21:42:25.417Z,-7.50
2022-12-14T21:44:53.436Z,-7.50
2022-12-14T21:47:28.429Z,-7.50
2022-12-14T21:49:56.198Z,-7.50
2022-12-14T21:52:26.356Z,-7.50
2022-12-14T21:54:53.072Z,-7.60
2022-12-14T21:57:42.336Z,-7.50
2022-12-14T22:00:11.005Z,-7.60
2022-12-14T22:02:41.654Z,-7.60
2022-12-14T22:05:09.446Z,-7.60
2022-12-14T22:07:36.125Z,-7.70
2022-12-14T22:10:03.023Z,-7.70
2022-12-14T22:12:29.938Z,-7.70
2022-12-14T22:14:56.674Z,-7.60
2022-12-14T22:17:23.576Z,-7.60
2022-12-14T22:19:51.173Z,-7.70
2022-12-14T22:22:18.108Z,-7.70
2022-12-14T22:24:48.449Z,-7.60
2022-12-14T22:27:15.237Z,-7.50
2022-12-14T22:29:41.940Z,-7.70
2022-12-14T22:32:13.585Z,-7.70
2022-12-14T22:34:40.491Z,-7.80
2022-12-14T22:37:07.201Z,-7.80
2022-12-14T22:39:34.044Z,-7.90
2022-12-14T22:42:06.095Z,-8.00
2022-12-14T22:44:32.738Z,-8.00
2022-12-14T22:46:59.466Z,-8.10
2022-12-14T22:49:26.160Z,-8.10
2022-12-14T22:51:52.947Z,-8.10
2022-12-14T22:54:25.731Z,-8.10
2022-12-14T22:56:55.462Z,-8.10
2022-12-14T22:59:30.266Z,-7.90
2022-12-14T23:01:58.244Z,-7.90
2022-12-14T23:04:25.338Z,-7.90
2022-12-14T23:06:52.931Z,-8.10
2022-12-14T23:09:38.336Z,-8.10
2022-12-14T23:12:24.461Z,-8.20
2022-12-14T23:15:09.758Z,-8.30
2022-12-14T23:17:55.274Z,-8.20
2022-12-14T23:20:40.715Z,-8.30
2022-12-14T23:23:27.905Z,-8.30
2022-12-14T23:26:13.682Z,-8.30
2022-12-14T23:28:59.860Z,-8.30
2022-12-14T23:31:45.387Z,-8.30
2022-12-14T23:34:30.903Z,-8.30
2022-12-14T23:37:20.087Z,-8.40
2022-12-14T23:40:06.756Z,-8.40
2022-12-14T23:42:52.228Z,-8.40
2022-12-14T23:45:37.813Z,-8.30
2022-12-14T23:48:23.457Z,-8.40
2022-12-14T23:51:09.006Z,-8.50
2022-12-14T23:53:54.455Z,-8.60
2022-12-14T23:56:39.906Z,-8.50
2022-12-14T23:59:31.604Z,-8.50
